PKWAPKMJ

Guest
Details From PKWA - BUCHOLZ AAF
To PKMJ - MARSHALL ISLANDS INTL
Flight Number -
Tags generated
Created
Modified
Stats Distance 233 nm / 432 km
Max Altitude 17,000 ft / 5,182 m
Waypoints 4
Social Downloads 0
Likes 0
Share VATSIM

Download

Looking for another format? Having issues loading an existing format? Contact us
Advertisement - Login to hide

Notes

Basic altitude profile: - Ascent Rate: 2500ft/min - Ascent Speed: 250kts - Cruise Altitude: 35000ft - Cruise Speed: 420kts - Descent Rate: 1500ft/min - Descent Speed: 250kts Options: - Use NATs: yes - Use PACOTS: yes - Use low airways: yes - Use high airways: yes

Route

PKWA NDJNB R584 OREEO PKMJ

ID Type Via Altitude Latitude Longitude Leg Dist Tot Dist Heading (true) Name
O PKWA APT - 0 ft / 0 m 8.72012˚ 167.73166˚ - 0 nm - BUCHOLZ AAF
NDJNB FIX - 0 ft / 0 m 8.72088˚ 167.72776˚ 0 nm 0 nm 281° / 281° -
OREEO FIX R584 (AWY-LO) 17,000 ft / 5,182 m 7.44806˚ 170.46917˚ 180 nm 180 nm 115° / 115° -
O PKMJ APT - 0 ft / 0 m 7.06476˚ 171.27202˚ 53 nm 233 nm 116° / 116° MARSHALL ISLANDS INTL

Altitude Profile

Advertisement - Login to hide

Weather


0- 5 10 15 20 25 30 35+ Temperature / ° C

Clouds and Precipitation
Forecast for 2017-12-14 18:00 UTC. Updated 2 hours ago

Ground ~20,000 ft ~40,000 ft Winds

PKWA

Details ICAO PKWA (KWA)
Name BUCHOLZ AAF
Region Marshall Islands
Timezone Pacific/Kwajalein (UTC+12.0)
Stats Elevation 9 ft / 3 m (AMSL)
Location 8.720121° 167.731662°
Runways 1
Magnetic Variation 7.617° E

METAR

PKWA 141700Z AUTO 08011G16KT 10SM SCT016 SCT060 SCT100 27/25 A2976 RMK AO2 T02690253

Decode

TAF

TAF PKWA 141130Z 1412/1512 07012KT P6SM VCSH SCT012 SCT030 BKN040 TEMPO 1412/1414 09014G25KT 3SM SHRA SCT010 BKN015 BKN100

Decode

Departure Runways

ID Width Length Bearing (true) Bearing (mag) Surface Threshold Offset Overrun Length
06 198 ft / 60 m 6,666 ft / 2,032 m 72.67° 65.05° Asphalt 0 ft / 0 m 0 ft / 0 m
24 198 ft / 60 m 6,666 ft / 2,032 m 252.67° 245.05° Asphalt 0 ft / 0 m 0 ft / 0 m

PKMJ

Details ICAO PKMJ (MAJ)
Name MARSHALL ISLANDS INTL
Region Marshall Islands
Timezone Pacific/Majuro (UTC+12.0)
Stats Elevation 6 ft / 2 m (AMSL)
Location 7.064760° 171.272023°
Runways 1
Magnetic Variation 8.428° E

METAR

Not found

TAF

TAF PKMJ 141130Z 1412/1512 08007KT P6SM VCSH SCT014 SCT050 BKN120

Decode

Destination Runways

ID Width Length Bearing (true) Bearing (mag) Surface Threshold Offset Overrun Length
07 150 ft / 46 m 7,898 ft / 2,407 m 76.08° 67.65° Asphalt 0 ft / 0 m 200 ft / 61 m
25 150 ft / 46 m 7,898 ft / 2,407 m 256.08° 247.65° Asphalt 0 ft / 0 m 200 ft / 61 m

Popular Alternatives